createdAt,value
2022-11-21T00:00:29.700Z,0.50
2022-11-21T00:02:59.288Z,0.50
2022-11-21T00:05:26.248Z,0.50
2022-11-21T00:07:53.595Z,0.50
2022-11-21T00:10:20.537Z,0.50
2022-11-21T00:12:47.595Z,0.50
2022-11-21T00:15:14.556Z,0.40
2022-11-21T00:17:43.379Z,0.40
2022-11-21T00:20:10.873Z,0.40
2022-11-21T00:22:38.246Z,0.40
2022-11-21T00:25:06.115Z,0.40
2022-11-21T00:27:33.056Z,0.50
2022-11-21T00:29:59.905Z,0.50
2022-11-21T00:32:27.132Z,0.50
2022-11-21T00:34:55.313Z,0.50
2022-11-21T00:37:22.513Z,0.50
2022-11-21T00:39:49.431Z,0.50
2022-11-21T00:42:16.615Z,0.60
2022-11-21T00:44:43.563Z,0.60
2022-11-21T00:47:10.756Z,0.60
2022-11-21T00:49:37.607Z,0.60
2022-11-21T00:52:06.107Z,0.60
2022-11-21T00:54:33.027Z,0.40
2022-11-21T00:57:00.515Z,0.50
2022-11-21T00:59:27.436Z,0.50
2022-11-21T01:01:54.690Z,0.60
2022-11-21T01:04:21.766Z,0.50
2022-11-21T01:06:49.215Z,0.50
2022-11-21T01:09:17.557Z,0.50
2022-11-21T01:11:44.781Z,0.40
2022-11-21T01:14:11.689Z,0.40
2022-11-21T01:16:38.598Z,0.40
2022-11-21T01:19:05.976Z,0.40
2022-11-21T01:21:33.488Z,0.50
2022-11-21T01:24:01.692Z,0.30
2022-11-21T01:26:31.854Z,0.30
2022-11-21T01:28:59.139Z,0.30
2022-11-21T01:31:28.102Z,0.30
2022-11-21T01:33:56.478Z,0.40
2022-11-21T01:36:26.038Z,0.40
2022-11-21T01:38:54.519Z,0.40
2022-11-21T01:41:24.157Z,0.40
2022-11-21T01:43:53.576Z,0.50
2022-11-21T01:46:22.047Z,0.50
2022-11-21T01:48:54.135Z,0.40
2022-11-21T01:51:25.687Z,0.50
2022-11-21T01:53:57.318Z,0.50
2022-11-21T01:56:25.569Z,0.50
2022-11-21T01:58:58.383Z,0.60
2022-11-21T02:01:25.374Z,0.60
2022-11-21T02:03:55.236Z,0.60
2022-11-21T02:06:23.239Z,0.60
2022-11-21T02:08:50.957Z,0.60
2022-11-21T02:11:26.394Z,0.60
2022-11-21T02:13:56.308Z,0.60
2022-11-21T02:16:24.550Z,0.60
2022-11-21T02:18:51.867Z,0.60
2022-11-21T02:21:27.270Z,0.50
2022-11-21T02:24:01.179Z,0.50
2022-11-21T02:26:30.683Z,0.60
2022-11-21T02:28:58.294Z,0.50
2022-11-21T02:31:25.266Z,0.60
2022-11-21T02:33:52.603Z,0.60
2022-11-21T02:36:39.259Z,0.60
2022-11-21T02:39:07.717Z,0.60
2022-11-21T02:41:41.410Z,0.60
2022-11-21T02:44:13.312Z,0.60
2022-11-21T02:46:49.470Z,0.60
2022-11-21T02:49:21.906Z,0.60
2022-11-21T02:51:49.348Z,0.50
2022-11-21T02:54:16.252Z,0.40
2022-11-21T02:56:44.622Z,0.40
2022-11-21T02:59:12.013Z,0.30
2022-11-21T03:01:38.950Z,0.20
2022-11-21T03:04:06.274Z,0.10
2022-11-21T03:06:33.145Z,0.10
2022-11-21T03:09:00.327Z,0.00
2022-11-21T03:11:27.239Z,0.00
2022-11-21T03:13:55.710Z,-0.10
2022-11-21T03:16:22.887Z,0.00
2022-11-21T03:18:50.050Z,0.00
2022-11-21T03:21:17.140Z,-0.10
2022-11-21T03:23:44.084Z,-0.10
2022-11-21T03:26:10.902Z,-0.10
2022-11-21T03:28:38.129Z,0.00
2022-11-21T03:31:06.354Z,0.00
2022-11-21T03:33:33.574Z,0.10
2022-11-21T03:36:00.438Z,0.10
2022-11-21T03:38:27.346Z,0.10
2022-11-21T03:40:54.273Z,0.10
2022-11-21T03:43:21.497Z,0.10
2022-11-21T03:45:48.392Z,0.10
2022-11-21T03:48:16.688Z,0.00
2022-11-21T03:50:44.385Z,0.00
2022-11-21T03:53:11.589Z,0.10
2022-11-21T03:55:38.545Z,0.10
2022-11-21T03:58:05.902Z,0.20
2022-11-21T04:00:33.207Z,0.10
2022-11-21T04:03:00.143Z,0.10
2022-11-21T04:05:28.833Z,0.20
2022-11-21T04:07:56.108Z,0.20
2022-11-21T04:10:26.183Z,0.20
2022-11-21T04:12:53.156Z,0.40
2022-11-21T04:15:20.350Z,0.20
2022-11-21T04:17:47.268Z,0.20
2022-11-21T04:20:15.421Z,0.20
2022-11-21T04:22:44.209Z,0.20
2022-11-21T04:25:11.881Z,0.10
2022-11-21T04:27:38.859Z,0.10
2022-11-21T04:30:06.857Z,0.10
2022-11-21T04:32:33.840Z,0.10
2022-11-21T04:35:01.140Z,0.10
2022-11-21T04:37:28.051Z,0.10
2022-11-21T04:39:56.615Z,0.10
2022-11-21T04:42:24.280Z,0.10
2022-11-21T04:44:51.636Z,0.10
2022-11-21T04:47:18.891Z,0.20
2022-11-21T04:49:46.033Z,0.20
2022-11-21T04:52:12.974Z,0.10
2022-11-21T04:54:40.222Z,0.10
2022-11-21T04:57:08.909Z,0.10
2022-11-21T04:59:36.098Z,0.10
2022-11-21T05:02:03.747Z,0.10
2022-11-21T05:04:30.696Z,0.00
2022-11-21T05:06:58.007Z,-0.10
2022-11-21T05:09:24.930Z,-0.10
2022-11-21T05:12:10.753Z,-0.20
2022-11-21T05:14:39.037Z,-0.30
2022-11-21T05:17:06.266Z,-0.30
2022-11-21T05:19:33.266Z,-0.40
2022-11-21T05:22:00.459Z,-0.40
2022-11-21T05:24:27.514Z,-0.50
2022-11-21T05:26:55.282Z,-0.30
2022-11-21T05:29:27.781Z,-0.60
2022-11-21T05:31:56.892Z,-0.60
2022-11-21T05:34:23.770Z,-0.70
2022-11-21T05:36:57.373Z,-0.60
2022-11-21T05:39:24.307Z,-0.60
2022-11-21T05:41:51.438Z,-0.70
2022-11-21T05:44:18.792Z,-0.70
2022-11-21T05:46:46.406Z,-0.70
2022-11-21T05:49:14.847Z,-0.70
2022-11-21T05:51:42.146Z,-0.70
2022-11-21T05:54:13.433Z,-0.70
2022-11-21T05:56:40.922Z,-0.80
2022-11-21T05:59:10.086Z,-0.70
2022-11-21T06:01:56.395Z,-0.70
2022-11-21T06:04:24.739Z,-0.80
2022-11-21T06:06:52.153Z,-0.80
2022-11-21T06:09:19.082Z,-0.80
2022-11-21T06:11:46.488Z,-0.80
2022-11-21T06:14:13.368Z,-0.90
2022-11-21T06:16:40.705Z,-0.90
2022-11-21T06:19:07.699Z,-0.90
2022-11-21T06:21:37.659Z,-0.90
2022-11-21T06:24:05.587Z,-0.90
2022-11-21T06:26:32.860Z,-1.00
2022-11-21T06:28:59.820Z,-1.00
2022-11-21T06:31:27.743Z,-1.00
2022-11-21T06:33:56.020Z,-1.00
2022-11-21T06:36:23.757Z,-0.90
2022-11-21T06:38:53.648Z,-1.00
2022-11-21T06:41:23.579Z,-1.10
2022-11-21T06:43:50.703Z,-1.00
2022-11-21T06:46:18.763Z,-1.00
2022-11-21T06:48:46.118Z,-1.00
2022-11-21T06:51:17.135Z,-1.00
2022-11-21T06:53:44.610Z,-1.00
2022-11-21T06:56:13.102Z,-1.00
2022-11-21T06:58:40.463Z,-1.00
2022-11-21T07:01:09.496Z,-1.00
2022-11-21T07:03:37.286Z,-0.90
2022-11-21T07:06:05.294Z,-0.90
2022-11-21T07:08:34.188Z,-0.90
2022-11-21T07:13:50.818Z,-0.90
2022-11-21T07:16:17.826Z,-0.90
2022-11-21T07:18:45.517Z,-0.90
2022-11-21T07:21:13.431Z,-0.90
2022-11-21T07:23:40.536Z,-0.90
2022-11-21T07:26:09.939Z,-0.90
2022-11-21T07:28:37.096Z,-0.90
2022-11-21T07:31:11.712Z,-0.90
2022-11-21T07:33:40.954Z,-0.90
2022-11-21T07:36:08.051Z,-0.80
2022-11-21T07:38:36.433Z,-0.80
2022-11-21T07:41:03.391Z,-0.80
2022-11-21T07:43:30.796Z,-0.80
2022-11-21T07:45:57.747Z,-0.70
2022-11-21T07:48:26.268Z,-0.70
2022-11-21T07:50:53.278Z,-0.70
2022-11-21T07:53:20.663Z,-0.60
2022-11-21T07:55:47.581Z,-0.60
2022-11-21T07:58:17.193Z,-0.60
2022-11-21T08:00:44.258Z,-0.50
2022-11-21T08:03:12.651Z,-0.50
2022-11-21T08:05:44.878Z,-0.50
2022-11-21T08:08:12.922Z,-0.60
2022-11-21T08:10:41.913Z,-0.60
2022-11-21T08:13:09.127Z,-0.60
2022-11-21T08:15:36.635Z,-0.70
2022-11-21T08:18:08.594Z,-0.70
2022-11-21T08:20:35.813Z,-0.70
2022-11-21T08:23:04.417Z,-0.60
2022-11-21T08:25:31.458Z,-0.60
2022-11-21T08:27:59.531Z,-0.50
2022-11-21T08:30:26.720Z,-0.40
2022-11-21T08:32:53.679Z,-0.40
2022-11-21T08:35:20.672Z,-0.30
2022-11-21T08:37:48.003Z,-0.20
2022-11-21T08:40:16.730Z,0.00
2022-11-21T08:42:43.935Z,0.10
2022-11-21T08:45:11.505Z,0.30
2022-11-21T08:47:38.487Z,0.50
2022-11-21T08:50:09.079Z,0.60
2022-11-21T08:52:37.649Z,0.40
2022-11-21T08:55:05.256Z,0.40
2022-11-21T08:57:38.307Z,0.40
2022-11-21T09:00:07.231Z,0.40
2022-11-21T09:02:34.866Z,0.50
2022-11-21T09:05:02.095Z,0.40
2022-11-21T09:07:29.123Z,0.50
2022-11-21T09:09:56.119Z,0.10
2022-11-21T09:12:23.497Z,0.20
2022-11-21T09:15:10.501Z,0.30
2022-11-21T09:17:55.959Z,0.40
2022-11-21T09:20:23.113Z,0.30
2022-11-21T09:22:50.200Z,0.40
2022-11-21T09:25:17.370Z,0.40
2022-11-21T09:27:44.359Z,0.50
2022-11-21T09:30:13.597Z,0.60
2022-11-21T09:32:40.956Z,0.50
2022-11-21T09:35:11.983Z,0.40
2022-11-21T09:37:39.138Z,0.40
2022-11-21T09:40:07.639Z,0.40
2022-11-21T09:42:57.773Z,0.70
2022-11-21T09:45:31.285Z,0.60
2022-11-21T09:47:58.686Z,0.80
2022-11-21T09:50:31.044Z,0.90
2022-11-21T09:53:03.380Z,0.90
2022-11-21T09:55:39.905Z,0.80
2022-11-21T09:58:18.799Z,0.80
2022-11-21T10:00:47.122Z,1.10
2022-11-21T10:03:17.953Z,1.30
2022-11-21T10:05:53.596Z,1.60
2022-11-21T10:08:30.106Z,2.20
2022-11-21T10:11:07.384Z,2.50
2022-11-21T10:13:53.109Z,1.90
2022-11-21T10:16:26.581Z,1.80
2022-11-21T10:19:21.207Z,2.40
2022-11-21T10:22:15.092Z,2.10
2022-11-21T10:24:53.702Z,2.80
2022-11-21T10:27:29.978Z,3.60
2022-11-21T10:30:02.471Z,3.80
2022-11-21T10:32:36.395Z,3.10
2022-11-21T10:35:14.105Z,2.60
2022-11-21T10:37:47.029Z,3.20
2022-11-21T10:40:26.203Z,3.40
2022-11-21T10:42:58.614Z,3.90
2022-11-21T10:45:25.971Z,4.50
2022-11-21T10:47:54.705Z,3.80
2022-11-21T10:50:50.619Z,3.60
2022-11-21T10:53:38.324Z,3.60
2022-11-21T10:56:08.939Z,3.90
2022-11-21T10:58:42.341Z,3.50
2022-11-21T11:01:24.467Z,3.20
2022-11-21T11:04:33.186Z,3.00
2022-11-21T11:07:21.641Z,2.60
2022-11-21T11:09:48.729Z,2.90
2022-11-21T11:12:24.110Z,3.00
2022-11-21T11:14:52.548Z,3.20
2022-11-21T11:17:28.314Z,3.50
2022-11-21T11:20:06.146Z,3.70
2022-11-21T11:22:33.765Z,4.70
2022-11-21T11:25:05.249Z,5.90
2022-11-21T11:27:32.101Z,7.00
2022-11-21T11:30:07.224Z,8.70
2022-11-21T11:32:39.988Z,9.60
2022-11-21T11:35:21.988Z,10.00
2022-11-21T11:37:57.564Z,9.20
2022-11-21T11:40:29.832Z,8.20
2022-11-21T11:43:32.926Z,8.70
2022-11-21T11:46:32.994Z,8.90
2022-11-21T11:49:19.927Z,9.40
2022-11-21T11:51:54.103Z,9.80
2022-11-21T11:54:24.675Z,10.80
2022-11-21T11:56:51.729Z,11.40
2022-11-21T11:59:24.187Z,10.50
2022-11-21T12:01:56.480Z,8.10
2022-11-21T12:04:25.154Z,8.80
2022-11-21T12:09:52.382Z,10.40
2022-11-21T12:12:31.736Z,10.20
2022-11-21T12:15:28.311Z,10.50
2022-11-21T12:18:17.330Z,11.30
2022-11-21T12:20:55.596Z,11.70
2022-11-21T12:23:28.020Z,12.00
2022-11-21T12:26:06.023Z,12.00
2022-11-21T12:28:41.871Z,11.70
2022-11-21T12:31:15.287Z,11.30
2022-11-21T12:33:53.842Z,10.30
2022-11-21T12:36:28.671Z,9.80
2022-11-21T12:39:13.345Z,9.20
2022-11-21T12:42:08.150Z,8.80
2022-11-21T12:44:52.371Z,8.30
2022-11-21T12:47:56.785Z,7.80
2022-11-21T12:50:48.821Z,7.80
2022-11-21T12:53:45.007Z,7.30
2022-11-21T12:56:19.299Z,7.20
2022-11-21T12:58:52.286Z,8.10
2022-11-21T13:01:28.106Z,8.70
2022-11-21T13:04:05.696Z,9.10
2022-11-21T13:06:38.123Z,9.10
2022-11-21T13:09:08.225Z,8.70
2022-11-21T13:11:59.466Z,7.60
2022-11-21T13:14:36.999Z,6.90
2022-11-21T13:17:20.782Z,6.30
2022-11-21T13:19:53.434Z,5.50
2022-11-21T13:22:50.004Z,4.70
2022-11-21T13:25:39.167Z,4.10
2022-11-21T13:28:39.201Z,3.80
2022-11-21T13:31:30.129Z,3.50
2022-11-21T13:33:57.663Z,3.30
2022-11-21T13:36:41.975Z,3.40
2022-11-21T13:39:28.932Z,3.50
2022-11-21T13:42:20.698Z,3.60
2022-11-21T13:44:51.511Z,3.70
2022-11-21T13:47:55.752Z,3.70
2022-11-21T13:50:38.343Z,3.70
2022-11-21T13:53:21.834Z,3.60
2022-11-21T13:55:57.920Z,3.40
2022-11-21T13:58:36.976Z,3.20
2022-11-21T14:01:21.055Z,3.00
2022-11-21T14:04:26.424Z,3.00
2022-11-21T14:06:53.905Z,2.80
2022-11-21T14:09:27.875Z,2.80
2022-11-21T14:11:58.115Z,2.60
2022-11-21T14:14:29.873Z,2.50
2022-11-21T14:17:16.732Z,2.40
2022-11-21T14:19:45.815Z,2.40
2022-11-21T14:22:24.355Z,2.30
2022-11-21T14:24:52.694Z,2.20
2022-11-21T14:27:26.451Z,2.20
2022-11-21T14:29:53.422Z,2.20
2022-11-21T14:32:26.508Z,2.10
2022-11-21T14:35:07.850Z,2.10
2022-11-21T14:37:35.995Z,2.10
2022-11-21T14:40:05.052Z,2.10
2022-11-21T14:42:37.463Z,2.10
2022-11-21T14:45:15.105Z,2.00
2022-11-21T14:47:47.877Z,1.90
2022-11-21T14:50:26.574Z,1.90
2022-11-21T14:52:57.425Z,1.80
2022-11-21T14:55:30.946Z,1.80
2022-11-21T14:58:00.238Z,1.80
2022-11-21T15:00:57.956Z,1.70
2022-11-21T15:03:20.712Z,1.60
2022-11-21T15:06:07.367Z,1.50
2022-11-21T15:11:34.261Z,1.40
2022-11-21T15:14:15.598Z,1.50
2022-11-21T15:16:44.946Z,1.40
2022-11-21T15:19:12.509Z,1.30
2022-11-21T15:21:46.433Z,1.30
2022-11-21T15:24:17.761Z,1.30
2022-11-21T15:26:44.965Z,1.30
2022-11-21T15:29:20.850Z,1.20
2022-11-21T15:32:02.656Z,1.20
2022-11-21T15:34:37.142Z,1.10
2022-11-21T15:37:14.929Z,1.20
2022-11-21T15:39:43.863Z,1.10
2022-11-21T15:42:37.843Z,1.00
2022-11-21T15:45:22.739Z,1.10
2022-11-21T15:47:49.868Z,1.00
2022-11-21T15:50:17.636Z,0.90
2022-11-21T15:52:48.264Z,0.80
2022-11-21T15:55:20.365Z,0.80
2022-11-21T15:57:47.266Z,0.90
2022-11-21T16:00:15.778Z,0.90
2022-11-21T16:02:42.683Z,0.90
2022-11-21T16:05:12.584Z,0.90
2022-11-21T16:07:39.701Z,0.90
2022-11-21T16:10:17.995Z,0.90
2022-11-21T16:12:50.240Z,0.80
2022-11-21T16:15:17.315Z,0.80
2022-11-21T16:17:45.641Z,0.80
2022-11-21T16:20:13.560Z,0.80
2022-11-21T16:22:46.904Z,0.70
2022-11-21T16:25:16.133Z,0.70
2022-11-21T16:27:43.086Z,0.60
2022-11-21T16:30:10.979Z,0.70
2022-11-21T16:32:37.894Z,0.70
2022-11-21T16:35:06.238Z,0.60
2022-11-21T16:37:33.542Z,0.40
2022-11-21T16:40:02.063Z,0.60
2022-11-21T16:42:30.430Z,0.60
2022-11-21T16:44:57.830Z,0.50
2022-11-21T16:47:24.733Z,0.50
2022-11-21T16:49:51.931Z,0.50
2022-11-21T16:52:18.904Z,0.50
2022-11-21T16:54:47.227Z,0.50
2022-11-21T16:57:14.288Z,0.50
2022-11-21T16:59:42.888Z,0.50
2022-11-21T17:02:12.556Z,0.40
2022-11-21T17:04:39.616Z,0.40
2022-11-21T17:07:06.901Z,0.50
2022-11-21T17:09:33.867Z,0.40
2022-11-21T17:12:01.106Z,0.50
2022-11-21T17:14:29.440Z,0.50
2022-11-21T17:17:00.363Z,0.50
2022-11-21T17:19:27.267Z,0.40
2022-11-21T17:21:54.201Z,0.50
2022-11-21T17:24:21.058Z,0.60
2022-11-21T17:26:48.408Z,0.70
2022-11-21T17:29:15.389Z,0.80
2022-11-21T17:31:43.222Z,0.90
2022-11-21T17:34:11.553Z,1.00
2022-11-21T17:36:38.892Z,1.00
2022-11-21T17:39:05.818Z,1.00
2022-11-21T17:41:32.789Z,1.00
2022-11-21T17:44:00.974Z,1.10
2022-11-21T17:46:28.655Z,1.20
2022-11-21T17:48:58.790Z,1.10
2022-11-21T17:51:29.748Z,1.10
2022-11-21T17:53:56.981Z,1.10
2022-11-21T17:56:26.177Z,1.10
2022-11-21T17:58:53.331Z,1.10
2022-11-21T18:01:20.962Z,1.10
2022-11-21T18:03:49.264Z,1.10
2022-11-21T18:06:17.660Z,1.10
2022-11-21T18:08:48.326Z,1.00
2022-11-21T18:11:18.573Z,0.90
2022-11-21T18:13:46.098Z,0.90
2022-11-21T18:16:15.296Z,0.80
2022-11-21T18:18:42.734Z,0.80
2022-11-21T18:21:12.076Z,0.70
2022-11-21T18:23:39.505Z,0.40
2022-11-21T18:26:11.065Z,0.60
2022-11-21T18:28:37.945Z,0.60
2022-11-21T18:31:06.188Z,0.50
2022-11-21T18:33:33.418Z,0.50
2022-11-21T18:36:00.585Z,0.40
2022-11-21T18:38:48.112Z,0.30
2022-11-21T18:41:20.240Z,0.30
2022-11-21T18:43:50.493Z,0.30
2022-11-21T18:46:17.487Z,0.20
2022-11-21T18:49:02.037Z,0.20
2022-11-21T18:51:31.941Z,0.10
2022-11-21T18:54:03.974Z,0.10
2022-11-21T18:56:32.465Z,0.00
2022-11-21T18:59:01.995Z,0.00
2022-11-21T19:01:30.465Z,0.00
2022-11-21T19:03:57.706Z,0.00
2022-11-21T19:06:26.425Z,0.00
2022-11-21T19:08:55.575Z,0.10
2022-11-21T19:11:24.844Z,0.20
2022-11-21T19:13:54.064Z,0.10
2022-11-21T19:16:24.634Z,0.00
2022-11-21T19:19:12.048Z,0.00
2022-11-21T19:21:42.159Z,-0.10
2022-11-21T19:24:13.322Z,-0.10
2022-11-21T19:26:41.488Z,-0.10
2022-11-21T19:29:10.297Z,-0.10
2022-11-21T19:31:42.943Z,0.00
2022-11-21T19:34:12.212Z,0.00
2022-11-21T19:36:39.426Z,0.10
2022-11-21T19:39:07.061Z,0.10
2022-11-21T19:41:34.286Z,0.20
2022-11-21T19:44:01.896Z,0.30
2022-11-21T19:46:31.949Z,0.30
2022-11-21T19:48:59.308Z,0.30
2022-11-21T19:51:29.833Z,0.30
2022-11-21T19:53:56.777Z,0.30
2022-11-21T19:56:25.380Z,0.30
2022-11-21T19:58:53.043Z,0.20
2022-11-21T20:01:21.465Z,0.20
2022-11-21T20:03:52.541Z,0.30
2022-11-21T20:06:22.144Z,0.30
2022-11-21T20:08:50.408Z,0.30
2022-11-21T20:11:17.985Z,0.30
2022-11-21T20:13:45.849Z,0.20
2022-11-21T20:16:37.455Z,0.20
2022-11-21T20:19:09.129Z,0.30
2022-11-21T20:21:37.229Z,0.20
2022-11-21T20:24:05.684Z,0.20
2022-11-21T20:26:33.575Z,0.20
2022-11-21T20:29:01.231Z,0.30
2022-11-21T20:31:30.037Z,0.20
2022-11-21T20:34:00.347Z,0.30
2022-11-21T20:36:30.658Z,0.30
2022-11-21T20:38:59.211Z,0.30
2022-11-21T20:41:28.280Z,0.30
2022-11-21T20:44:46.640Z,0.40
2022-11-21T20:46:43.443Z,0.40
2022-11-21T20:49:10.979Z,0.40
2022-11-21T20:54:26.272Z,0.40
2022-11-21T20:56:53.359Z,0.50
2022-11-21T20:59:20.588Z,0.50
2022-11-21T21:01:47.492Z,0.50
2022-11-21T21:04:14.815Z,0.60
2022-11-21T21:06:43.002Z,0.60
2022-11-21T21:09:09.833Z,0.50
2022-11-21T21:11:51.456Z,0.50
2022-11-21T21:14:19.836Z,0.50
2022-11-21T21:16:46.760Z,0.50
2022-11-21T21:19:13.748Z,0.50
2022-11-21T21:21:42.198Z,0.50
2022-11-21T21:24:10.814Z,0.50
2022-11-21T21:26:42.722Z,0.60
2022-11-21T21:29:13.537Z,0.60
2022-11-21T21:31:48.577Z,0.60
2022-11-21T21:34:18.007Z,0.60
2022-11-21T21:36:46.358Z,0.60
2022-11-21T21:39:13.346Z,0.60
2022-11-21T21:41:44.861Z,0.60
2022-11-21T21:44:12.145Z,0.70
2022-11-21T21:46:39.437Z,0.70
2022-11-21T21:49:06.336Z,0.70
2022-11-21T21:51:33.396Z,0.80
2022-11-21T21:54:01.833Z,0.70
2022-11-21T21:56:29.931Z,0.70
2022-11-21T21:58:57.813Z,0.70
2022-11-21T22:01:26.774Z,0.70
2022-11-21T22:03:54.690Z,0.70
2022-11-21T22:06:22.475Z,0.70
2022-11-21T22:08:50.300Z,0.70
2022-11-21T22:11:20.450Z,0.70
2022-11-21T22:13:48.769Z,0.80
2022-11-21T22:16:16.049Z,0.70
2022-11-21T22:18:43.112Z,0.70
2022-11-21T22:21:14.729Z,0.70
2022-11-21T22:23:56.466Z,0.70
2022-11-21T22:26:30.011Z,0.70
2022-11-21T22:28:57.027Z,0.70
2022-11-21T22:31:23.977Z,0.70
2022-11-21T22:33:50.857Z,1.00
2022-11-21T22:36:19.231Z,0.80
2022-11-21T22:38:46.515Z,0.90
2022-11-21T22:41:15.874Z,0.90
2022-11-21T22:43:48.709Z,0.90
2022-11-21T22:46:16.436Z,1.00
2022-11-21T22:48:43.371Z,0.90
2022-11-21T22:51:12.607Z,0.90
2022-11-21T22:53:40.436Z,0.90
2022-11-21T22:56:10.069Z,0.90
2022-11-21T22:58:38.613Z,0.90
2022-11-21T23:01:12.135Z,0.90
2022-11-21T23:03:39.248Z,0.90
2022-11-21T23:06:07.919Z,1.00
2022-11-21T23:08:35.597Z,1.00
2022-11-21T23:11:04.016Z,1.00
2022-11-21T23:13:31.543Z,1.00
2022-11-21T23:15:58.806Z,1.00
2022-11-21T23:18:27.206Z,1.10
2022-11-21T23:20:54.170Z,1.00
2022-11-21T23:23:22.653Z,1.00
2022-11-21T23:25:49.753Z,1.10
2022-11-21T23:28:16.603Z,1.10
2022-11-21T23:30:46.300Z,1.10
2022-11-21T23:33:13.678Z,1.10
2022-11-21T23:35:42.512Z,1.10
2022-11-21T23:38:09.409Z,1.10
2022-11-21T23:40:36.840Z,1.20
2022-11-21T23:43:03.849Z,1.10
2022-11-21T23:45:31.234Z,1.20
2022-11-21T23:47:58.096Z,1.20
2022-11-21T23:50:25.665Z,1.20
2022-11-21T23:52:53.899Z,1.30
2022-11-21T23:55:20.825Z,1.30
2022-11-21T23:57:48.793Z,1.30
